Time;durP1;ratioP1;P1;durP2;ratioP2;P2;SDS_P1;SDS_P2;PMS_P1;PMS_P2;Temp;Humidity;BMP_temperature;BMP_pressure;BME280_temperature;BME280_humidity;BME280_pressure;Samples;Min_cycle;Max_cycle;Signal;HPM_P1;HPM_P2
2023/02/05 00:00:49;;;;;;;;;4.67;3.33;;;;;12.28;57.81;103421.78;2064915;27;46275;-64
2023/02/05 00:01:50;;;;;;;;;4.00;3.00;;;;;12.28;58.16;103427.13;2069829;28;46158;-62
2023/02/05 00:02:50;;;;;;;;;3.00;3.00;;;;;12.27;58.14;103427.09;2072720;27;46682;-61
2023/02/05 00:03:50;;;;;;;;;3.33;3.33;;;;;12.27;58.06;103428.00;2061526;28;46715;-62
2023/02/05 00:04:52;;;;;;;;;5.00;5.00;;;;;12.25;58.10;103431.50;2062210;28;46861;-60
2023/02/05 00:05:52;;;;;;;;;2.50;2.50;;;;;12.24;57.95;103433.28;2054992;28;46543;-61
2023/02/05 00:06:52;;;;;;;;;4.00;4.00;;;;;12.24;58.01;103425.28;2053828;28;46865;-61
2023/02/05 00:07:53;;;;;;;;;1.00;1.00;;;;;12.25;57.91;103429.75;2060419;28;45965;-59
2023/02/05 00:08:55;;;;;;;;;4.00;4.00;;;;;12.23;57.96;103417.28;2060753;28;47220;-62
2023/02/05 00:09:55;;;;;;;;;2.50;2.25;;;;;12.24;57.90;103419.06;2062823;28;45930;-63
2023/02/05 00:10:56;;;;;;;;;3.67;3.67;;;;;12.26;57.71;103417.31;2062494;28;45208;-60
2023/02/05 00:11:57;;;;;;;;;2.00;2.00;;;;;12.26;57.80;103419.97;2062400;28;46528;-61
2023/02/05 00:12:57;;;;;;;;;5.33;4.00;;;;;12.25;57.68;103416.44;2062027;28;46798;-60
2023/02/05 00:13:57;;;;;;;;;6.00;4.67;;;;;12.23;57.78;103418.19;2062169;27;45467;-62
2023/02/05 00:14:57;;;;;;;;;4.00;4.00;;;;;12.25;57.80;103421.75;2062567;28;46840;-61
2023/02/05 00:15:58;;;;;;;;;4.33;4.33;;;;;12.24;57.55;103414.63;2062533;28;46604;-60
2023/02/05 00:16:58;;;;;;;;;4.00;4.00;;;;;12.24;57.69;103422.63;2062064;27;46312;-60
2023/02/05 00:17:58;;;;;;;;;6.33;5.33;;;;;12.26;57.82;103425.31;2062135;28;46918;-60
2023/02/05 00:18:59;;;;;;;;;4.67;4.67;;;;;12.24;57.72;103425.28;2062426;28;46649;-60
2023/02/05 00:20:00;;;;;;;;;3.33;3.33;;;;;12.26;57.76;103423.53;2063511;27;46578;-60
2023/02/05 00:21:00;;;;;;;;;4.00;3.00;;;;;12.25;57.60;103421.75;2062028;28;46675;-61
2023/02/05 00:22:00;;;;;;;;;6.33;3.67;;;;;12.26;57.58;103420.88;2076489;27;46456;-62
2023/02/05 00:23:01;;;;;;;;;4.67;4.00;;;;;12.26;57.67;103412.91;2074308;27;46523;-60
2023/02/05 00:24:02;;;;;;;;;3.75;3.75;;;;;12.26;57.70;103412.91;2062453;28;45855;-61
2023/02/05 00:25:02;;;;;;;;;4.00;4.00;;;;;12.25;57.46;103415.53;2069735;27;45921;-60
2023/02/05 00:26:04;;;;;;;;;4.00;1.67;;;;;12.23;57.38;103406.63;2064776;28;46850;-62
2023/02/05 00:27:06;;;;;;;;;3.00;3.00;;;;;12.23;57.50;103415.50;2070747;28;46311;-62
2023/02/05 00:28:06;;;;;;;;;2.00;2.00;;;;;12.21;57.45;103419.94;2070497;28;45947;-61
2023/02/05 00:29:07;;;;;;;;;1.67;1.67;;;;;12.23;57.49;103414.63;2061840;28;46786;-61
2023/02/05 00:30:08;;;;;;;;;2.33;2.33;;;;;12.23;57.51;103417.28;2061426;28;46553;-61
2023/02/05 00:31:12;;;;;;;;;4.75;4.00;;;;;12.23;57.53;103420.84;2070395;27;46742;-60
2023/02/05 00:32:13;;;;;;;;;5.75;3.00;;;;;12.25;57.25;103412.88;2070906;28;46150;-63
2023/02/05 00:33:13;;;;;;;;;4.00;4.00;;;;;12.24;57.50;103414.63;2070014;28;46299;-61
2023/02/05 00:34:14;;;;;;;;;2.67;2.00;;;;;12.26;57.37;103412.00;2070276;28;46360;-61
2023/02/05 00:35:14;;;;;;;;;4.00;4.00;;;;;12.24;57.16;103408.41;2062501;28;46472;-60
2023/02/05 00:36:16;;;;;;;;;2.33;2.33;;;;;12.23;57.07;103407.53;2060489;28;46228;-61
2023/02/05 00:37:17;;;;;;;;;2.00;2.00;;;;;12.21;57.43;103403.06;2062337;28;45960;-62
2023/02/05 00:38:17;;;;;;;;;4.33;2.00;;;;;12.21;57.41;103405.72;2078087;28;46410;-61
2023/02/05 00:39:18;;;;;;;;;4.67;3.33;;;;;12.19;57.12;103403.00;2072977;27;45581;-59
2023/02/05 00:40:19;;;;;;;;;4.25;3.00;;;;;12.18;57.33;103405.66;2070505;28;46804;-61
2023/02/05 00:41:19;;;;;;;;;3.00;3.00;;;;;12.18;57.33;103414.53;2064668;28;46734;-60
2023/02/05 00:42:19;;;;;;;;;3.33;3.33;;;;;12.18;57.56;103409.22;2062777;28;46255;-60
2023/02/05 00:43:20;;;;;;;;;4.00;3.33;;;;;12.18;57.30;103408.31;2070363;28;46437;-61
2023/02/05 00:44:20;;;;;;;;;3.00;3.00;;;;;12.18;57.14;103408.31;2070115;27;46296;-61
2023/02/05 00:45:20;;;;;;;;;2.00;2.00;;;;;12.18;57.12;103409.22;2070392;28;46249;-62
2023/02/05 00:46:21;;;;;;;;;2.33;2.00;;;;;12.18;57.02;103410.97;2070333;28;46496;-62
2023/02/05 00:47:21;;;;;;;;;3.00;3.00;;;;;12.18;57.12;103408.31;2069998;28;45714;-61
2023/02/05 00:48:21;;;;;;;;;2.00;2.00;;;;;12.18;57.13;103406.53;2070288;28;46784;-60
2023/02/05 00:49:22;;;;;;;;;5.00;4.00;;;;;12.20;57.03;103406.59;2069836;28;47539;-61
2023/02/05 00:50:22;;;;;;;;;4.33;4.33;;;;;12.20;56.96;103411.94;2069882;28;46570;-61
2023/02/05 00:51:23;;;;;;;;;3.00;3.00;;;;;12.21;56.91;103408.38;2069337;28;46420;-60
2023/02/05 00:52:24;;;;;;;;;3.00;3.00;;;;;12.20;56.69;103412.81;2065530;28;46790;-61
2023/02/05 00:53:24;;;;;;;;;3.67;3.00;;;;;12.20;56.75;103415.47;2069486;28;45906;-59
2023/02/05 00:54:25;;;;;;;;;3.00;3.00;;;;;12.20;56.83;103411.94;2061037;28;46776;-62
2023/02/05 00:55:25;;;;;;;;;6.00;4.00;;;;;12.20;56.87;103414.59;2063105;28;46385;-61
2023/02/05 00:56:25;;;;;;;;;4.00;3.33;;;;;12.19;56.84;103405.66;2069440;28;46441;-62
2023/02/05 00:57:26;;;;;;;;;3.33;3.33;;;;;12.19;56.90;103405.66;2069416;27;46742;-63
2023/02/05 00:58:26;;;;;;;;;4.00;4.00;;;;;12.21;56.92;103409.28;2069473;28;46506;-62
2023/02/05 00:59:26;;;;;;;;;3.00;3.00;;;;;12.21;56.99;103411.06;2069857;28;45922;-61
2023/02/05 01:00:27;;;;;;;;;3.67;3.67;;;;;12.21;56.80;103409.28;2069694;28;46799;-61
2023/02/05 01:01:27;;;;;;;;;4.33;4.33;;;;;12.20;56.84;103402.16;2069558;28;46365;-61
2023/02/05 01:02:28;;;;;;;;;5.00;4.00;;;;;12.21;56.67;103403.06;2069227;27;46357;-62
2023/02/05 01:03:28;;;;;;;;;3.00;3.00;;;;;12.20;56.77;103396.84;2069674;28;46198;-61
2023/02/05 01:04:28;;;;;;;;;2.67;2.67;;;;;12.19;56.86;103395.03;2102511;28;46446;-62
2023/02/05 01:05:29;;;;;;;;;3.00;2.00;;;;;12.19;56.59;103396.78;2098381;28;46641;-62
2023/02/05 01:06:29;;;;;;;;;2.00;2.00;;;;;12.17;56.55;103393.22;2063068;28;46337;-61
2023/02/05 01:07:30;;;;;;;;;3.33;3.33;;;;;12.17;56.54;103385.22;2064755;28;46452;-61
2023/02/05 01:08:31;;;;;;;;;4.67;4.67;;;;;12.15;56.77;103385.22;2060694;28;46271;-63
2023/02/05 01:09:31;;;;;;;;;2.33;2.33;;;;;12.17;56.80;103385.22;2069453;28;46125;-62
2023/02/05 01:10:32;;;;;;;;;4.00;4.00;;;;;12.16;56.64;103381.69;2069668;28;46241;-61
2023/02/05 01:11:32;;;;;;;;;3.50;3.50;;;;;12.16;56.46;103375.47;2069838;27;46811;-61
2023/02/05 01:12:33;;;;;;;;;3.00;3.00;;;;;12.13;56.47;103378.97;2069576;28;46353;-60
2023/02/05 01:13:33;;;;;;;;;3.00;3.00;;;;;12.13;56.48;103372.75;2070032;28;46057;-60
2023/02/05 01:14:33;;;;;;;;;2.67;2.67;;;;;12.11;56.41;103377.19;2069418;28;46851;-60
2023/02/05 01:15:34;;;;;;;;;3.00;3.00;;;;;12.10;56.54;103370.06;2069502;28;46593;-61
2023/02/05 01:16:34;;;;;;;;;2.00;2.00;;;;;12.07;56.54;103369.16;2069594;28;46232;-61
2023/02/05 01:17:34;;;;;;;;;6.00;4.00;;;;;12.06;56.56;103380.63;2069453;27;46666;-61
2023/02/05 01:18:35;;;;;;;;;2.00;2.00;;;;;12.06;56.68;103380.63;2069284;28;46584;-61
2023/02/05 01:19:36;;;;;;;;;2.33;2.33;;;;;12.06;56.72;103371.75;2069552;28;46123;-60
2023/02/05 01:20:40;;;;;;;;;5.00;4.67;;;;;12.08;56.49;103376.25;2069196;28;46203;-62
2023/02/05 01:21:41;;;;;;;;;5.00;2.50;;;;;12.09;56.61;103369.16;2069223;28;46281;-62
2023/02/05 01:22:42;;;;;;;;;2.00;2.00;;;;;12.12;57.02;103368.31;2070563;28;46072;-62
2023/02/05 01:23:42;;;;;;;;;5.00;5.00;;;;;12.12;56.34;103365.66;2067424;27;45566;-62
2023/02/05 01:24:43;;;;;;;;;2.00;2.00;;;;;12.12;56.17;103360.31;2064834;28;46806;-63
2023/02/05 01:25:43;;;;;;;;;2.33;2.00;;;;;12.10;56.35;103368.28;2075044;28;46656;-62
2023/02/05 01:26:44;;;;;;;;;4.00;3.33;;;;;12.10;56.46;103364.75;2071247;27;46293;-62
2023/02/05 01:27:44;;;;;;;;;3.67;3.67;;;;;12.11;56.33;103371.84;2069662;28;46079;-61
2023/02/05 01:28:45;;;;;;;;;3.00;3.00;;;;;12.11;56.30;103372.75;2069306;28;46246;-61
2023/02/05 01:29:46;;;;;;;;;1.50;1.50;;;;;12.12;56.24;103371.88;2069377;28;46858;-61
2023/02/05 01:30:49;;;;;;;;;2.00;2.00;;;;;12.11;56.18;103372.75;2069707;28;46838;-61
2023/02/05 01:31:50;;;;;;;;;4.25;3.50;;;;;12.11;55.85;103372.75;2064168;28;46592;-60
2023/02/05 01:32:51;;;;;;;;;2.50;2.50;;;;;12.11;55.83;103372.75;2069191;28;45602;-61
2023/02/05 01:33:51;;;;;;;;;3.00;3.00;;;;;12.11;55.88;103369.19;2069138;28;46883;-60
2023/02/05 01:34:51;;;;;;;;;4.00;3.00;;;;;12.10;55.74;103373.63;2067212;28;46646;-61
2023/02/05 01:35:52;;;;;;;;;2.00;1.67;;;;;12.10;55.75;103370.06;2062909;28;46843;-61
2023/02/05 01:36:52;;;;;;;;;2.00;2.00;;;;;12.10;55.81;103367.41;2069473;28;46647;-59
2023/02/05 01:37:52;;;;;;;;;3.67;2.00;;;;;12.10;55.73;103372.72;2069538;28;46473;-61
2023/02/05 01:38:53;;;;;;;;;3.00;2.00;;;;;12.07;55.51;103371.81;2068571;28;46103;-61
2023/02/05 01:39:53;;;;;;;;;3.33;2.33;;;;;12.08;55.38;103367.38;2069479;28;46402;-60
2023/02/05 01:40:53;;;;;;;;;2.33;2.33;;;;;12.06;55.29;103372.66;2069452;28;46814;-62
2023/02/05 01:41:54;;;;;;;;;1.00;1.00;;;;;12.05;55.17;103370.88;2069684;28;46929;-61
2023/02/05 01:42:54;;;;;;;;;1.00;1.00;;;;;12.03;55.16;103361.97;2069475;28;46659;-60
2023/02/05 01:44:09;;;;;;;;;2.33;1.33;;;;;12.02;55.29;103364.63;2069705;28;46890;-62
2023/02/05 01:45:21;;;;;;;;;3.33;2.33;;;;;12.01;55.23;103361.06;2023519;28;1109789;-61
2023/02/05 01:46:28;;;;;;;;;1.50;1.50;;;;;12.01;55.35;103360.16;2066071;28;46985;-62
2023/02/05 01:47:28;;;;;;;;;2.75;2.75;;;;;12.00;55.33;103356.63;2070099;28;46423;-61
2023/02/05 01:48:34;;;;;;;;;1.00;1.00;;;;;11.98;55.11;103353.03;2070159;28;46017;-61
2023/02/05 01:49:39;;;;;;;;;1.75;1.75;;;;;11.99;54.63;103361.91;2061184;28;46740;-60
2023/02/05 01:50:54;;;;;;;;;1.25;1.00;;;;;11.98;54.86;103358.38;2061861;28;46354;-60
2023/02/05 01:51:58;;;;;;;;;2.00;2.00;;;;;11.97;55.14;103353.91;2070032;28;46883;-61
2023/02/05 01:53:04;;;;;;;;;2.00;2.00;;;;;11.96;54.96;103360.13;2069542;28;46502;-61
2023/02/05 01:54:06;;;;;;;;;4.00;3.00;;;;;11.96;55.00;103357.44;2070626;28;45739;-61
2023/02/05 01:55:07;;;;;;;;;1.75;1.75;;;;;11.97;54.88;103361.00;2068763;28;46536;-60
2023/02/05 01:56:15;;;;;;;;;2.75;2.75;;;;;11.96;55.07;103361.88;2061690;28;46773;-61
2023/02/05 01:57:21;;;;;;;;;2.75;2.00;;;;;11.96;54.97;103353.91;2066496;28;46975;-60
2023/02/05 01:58:26;;;;;;;;;3.00;3.00;;;;;11.97;54.79;103345.03;2070127;28;46409;-62
2023/02/05 01:59:31;;;;;;;;;2.00;2.00;;;;;11.95;54.91;103346.78;2070264;28;46425;-62
2023/02/05 02:00:31;;;;;;;;;3.75;2.25;;;;;11.95;55.06;103345.03;2068352;28;46855;-63
2023/02/05 02:01:32;;;;;;;;;2.00;2.00;;;;;11.95;54.75;103338.81;2068815;28;46904;-61
2023/02/05 02:02:35;;;;;;;;;3.00;3.00;;;;;11.95;54.76;103341.47;2068886;28;46758;-61
2023/02/05 02:03:36;;;;;;;;;2.75;2.75;;;;;11.94;54.86;103335.25;2068637;28;46405;-60
2023/02/05 02:04:41;;;;;;;;;2.00;2.00;;;;;11.95;54.82;103342.38;2068927;28;45724;-61
2023/02/05 02:05:42;;;;;;;;;2.00;2.00;;;;;11.95;54.92;103331.72;2072310;28;46528;-60
2023/02/05 02:06:42;;;;;;;;;2.00;2.00;;;;;11.96;54.53;103336.16;2076408;28;45063;-61
2023/02/05 02:07:42;;;;;;;;;2.33;2.33;;;;;11.96;54.92;103332.59;2068920;28;46863;-62
2023/02/05 02:08:43;;;;;;;;;2.00;2.00;;;;;11.95;54.64;103321.06;2068739;28;46577;-60
2023/02/05 02:09:45;;;;;;;;;2.33;2.33;;;;;11.94;54.43;103329.00;2072434;28;46207;-59
2023/02/05 02:10:48;;;;;;;;;2.00;2.00;;;;;11.91;54.57;103329.84;2063308;28;46308;-61
2023/02/05 02:11:49;;;;;;;;;2.75;2.00;;;;;11.91;54.76;103323.66;2067634;28;45947;-61
2023/02/05 02:12:51;;;;;;;;;3.00;3.00;;;;;11.89;54.61;103318.31;2069136;28;46224;-62
2023/02/05 02:13:54;;;;;;;;;3.00;1.75;;;;;11.90;54.39;103327.19;2069328;28;47056;-62
2023/02/05 02:15:00;;;;;;;;;4.25;3.25;;;;;11.90;54.46;103321.84;2080317;27;46606;-61
2023/02/05 02:16:02;;;;;;;;;3.75;2.50;;;;;11.89;54.35;103326.28;2102447;27;46565;-61
2023/02/05 02:17:05;;;;;;;;;4.25;2.75;;;;;11.88;54.54;103321.84;2068781;28;46772;-61
2023/02/05 02:18:26;;;;;;;;;3.25;3.00;;;;;11.88;54.28;103321.84;2068945;28;46735;-61
2023/02/05 02:19:36;;;;;;;;;3.25;2.00;;;;;11.88;54.52;103321.84;2068802;28;46499;-61
2023/02/05 02:20:41;;;;;;;;;1.75;1.75;;;;;11.89;54.53;103326.28;2067613;28;46696;-61
2023/02/05 02:21:53;;;;;;;;;3.00;3.00;;;;;11.89;54.62;103312.09;2068634;28;46480;-62
2023/02/05 02:23:02;;;;;;;;;2.25;2.25;;;;;11.89;54.31;103306.78;2068885;28;46780;-61
2023/02/05 02:24:11;;;;;;;;;2.25;2.00;;;;;11.87;54.51;103308.53;2068737;28;46564;-60
2023/02/05 02:25:31;;;;;;;;;3.00;2.00;;;;;11.84;54.21;103313.81;2070244;28;46716;-59
2023/02/05 02:26:47;;;;;;;;;2.25;2.25;;;;;11.84;54.32;103316.47;2065546;28;46213;-60
2023/02/05 02:27:55;;;;;;;;;2.00;2.00;;;;;11.82;54.43;103319.09;2068537;28;45104;-60
2023/02/05 02:29:01;;;;;;;;;5.00;3.00;;;;;11.82;54.48;103324.44;2052504;28;46856;-61
2023/02/05 02:30:10;;;;;;;;;3.00;2.50;;;;;11.81;54.41;103317.28;2060476;28;46366;-61
2023/02/05 02:31:18;;;;;;;;;1.75;1.00;;;;;11.82;54.35;103313.78;2068385;28;46354;-61
2023/02/05 02:32:38;;;;;;;;;3.75;2.25;;;;;11.80;54.52;103312.84;2069110;28;46732;-61
2023/02/05 02:33:59;;;;;;;;;4.00;2.25;;;;;11.80;54.46;103315.50;2062738;28;46454;-60
2023/02/05 02:35:06;;;;;;;;;3.75;3.00;;;;;11.81;54.21;103316.41;2065123;28;46721;-61
2023/02/05 02:36:30;;;;;;;;;2.50;2.50;;;;;11.80;54.56;103312.84;2069732;28;46623;-60
2023/02/05 02:37:38;;;;;;;;;3.00;3.00;;;;;11.79;54.63;103317.28;2069152;28;46959;-61
2023/02/05 02:38:43;;;;;;;;;4.00;4.00;;;;;11.77;54.36;103321.66;2069703;28;46336;-60
2023/02/05 02:39:50;;;;;;;;;2.00;2.00;;;;;11.78;54.49;103333.19;2069805;28;47087;-61
2023/02/05 02:41:00;;;;;;;;;1.75;1.75;;;;;11.76;54.50;103335.81;2069247;28;46773;-60
2023/02/05 02:42:03;;;;;;;;;1.75;1.75;;;;;11.75;54.89;103339.34;2069639;28;46959;-61
2023/02/05 02:43:13;;;;;;;;;1.75;1.75;;;;;11.74;54.70;103342.88;2061370;28;46563;-60
2023/02/05 02:44:18;;;;;;;;;3.50;3.50;;;;;11.73;54.87;103342.88;2067390;28;46901;-60
2023/02/05 02:45:21;;;;;;;;;3.00;3.00;;;;;11.71;54.83;103345.50;2104071;28;46662;-61
2023/02/05 02:46:40;;;;;;;;;4.50;2.50;;;;;11.70;54.87;103346.38;2103271;28;46830;-60
2023/02/05 02:47:47;;;;;;;;;2.75;2.75;;;;;11.70;54.73;103354.38;2070993;28;46745;-61
2023/02/05 02:48:51;;;;;;;;;2.00;2.00;;;;;11.68;54.94;103353.41;2071054;28;45153;-59
2023/02/05 02:49:51;;;;;;;;;2.00;2.00;;;;;11.69;54.87;103357.91;2071132;28;46734;-60
2023/02/05 02:50:55;;;;;;;;;3.67;2.33;;;;;11.68;54.95;103363.16;2071454;28;46568;-60
2023/02/05 02:52:00;;;;;;;;;4.75;4.75;;;;;11.68;55.12;103369.38;2071114;27;45804;-61
2023/02/05 02:53:10;;;;;;;;;2.00;2.00;;;;;11.67;55.26;103367.59;2067533;28;46215;-61
2023/02/05 02:54:16;;;;;;;;;3.00;3.00;;;;;11.68;55.02;103369.38;2063897;28;46453;-60
2023/02/05 02:55:19;;;;;;;;;3.25;3.00;;;;;11.69;55.37;103372.97;2069621;28;45871;-62
2023/02/05 02:56:22;;;;;;;;;2.50;2.50;;;;;11.68;55.37;103379.13;2069905;28;46108;-61
2023/02/05 02:57:27;;;;;;;;;3.25;2.25;;;;;11.66;55.17;103379.09;2063858;27;46755;-62
2023/02/05 02:58:34;;;;;;;;;3.00;1.50;;;;;11.65;55.04;103374.66;2065231;27;46570;-62
2023/02/05 02:59:37;;;;;;;;;3.50;3.50;;;;;11.65;55.32;103379.09;2071296;28;47393;-61
2023/02/05 03:00:40;;;;;;;;;3.00;3.00;;;;;11.63;55.31;103371.09;2070769;27;46680;-61
2023/02/05 03:01:45;;;;;;;;;2.00;2.00;;;;;11.62;55.28;103377.28;2074396;28;46155;-61
2023/02/05 03:02:48;;;;;;;;;3.00;2.00;;;;;11.62;55.28;103366.63;2072285;27;46265;-61
2023/02/05 03:03:55;;;;;;;;;6.00;3.00;;;;;11.61;55.16;103362.19;2070668;28;46608;-61
2023/02/05 03:05:00;;;;;;;;;2.75;2.75;;;;;11.61;55.81;103371.94;2070812;28;46605;-61
2023/02/05 03:06:05;;;;;;;;;3.50;2.25;;;;;11.60;55.55;103364.81;2062441;28;46803;-61
2023/02/05 03:07:17;;;;;;;;;3.00;3.00;;;;;11.59;55.22;103363.03;2062329;27;46550;-61
2023/02/05 03:08:24;;;;;;;;;3.75;2.75;;;;;11.60;55.80;103370.16;2062496;28;47039;-62
2023/02/05 03:09:33;;;;;;;;;4.00;4.00;;;;;11.59;55.44;103371.03;2068275;28;46477;-61
2023/02/05 03:10:43;;;;;;;;;2.25;2.25;;;;;11.56;55.50;103369.22;2065387;28;46483;-61
2023/02/05 03:11:43;;;;;;;;;2.00;2.00;;;;;11.57;55.40;103368.34;2062321;28;46944;-61
2023/02/05 03:12:44;;;;;;;;;2.00;2.00;;;;;11.58;55.67;103371.88;2062851;28;46382;-62
2023/02/05 03:13:45;;;;;;;;;3.00;3.00;;;;;11.57;55.63;103371.00;2073934;27;46492;-61
2023/02/05 03:14:45;;;;;;;;;3.75;3.75;;;;;11.57;55.48;103378.97;2077400;28;46470;-62
2023/02/05 03:15:46;;;;;;;;;3.33;3.00;;;;;11.57;55.62;103370.09;2046383;28;46314;-61
2023/02/05 03:16:47;;;;;;;;;2.50;2.50;;;;;11.58;55.73;103377.22;2050502;28;46509;-60
2023/02/05 03:17:49;;;;;;;;;1.00;1.00;;;;;11.59;55.72;103381.66;2062459;28;46182;-62
2023/02/05 03:18:50;;;;;;;;;1.50;1.00;;;;;11.58;55.94;103382.53;2062357;28;46504;-62
2023/02/05 03:20:04;;;;;;;;;2.25;2.25;;;;;11.60;55.78;103378.13;2062552;28;46317;-62
2023/02/05 03:21:14;;;;;;;;;2.00;2.00;;;;;11.61;55.92;103377.25;2063309;28;46133;-60
2023/02/05 03:22:15;;;;;;;;;4.75;4.00;;;;;11.61;55.88;103382.56;2054140;28;46224;-61
2023/02/05 03:23:15;;;;;;;;;3.00;3.00;;;;;11.61;55.86;103383.47;2058723;28;46307;-61
2023/02/05 03:24:16;;;;;;;;;2.33;2.33;;;;;11.63;55.64;103388.81;2054663;28;46546;-62
2023/02/05 03:25:19;;;;;;;;;3.50;3.50;;;;;11.63;55.58;103380.81;2058608;28;46663;-60
2023/02/05 03:26:26;;;;;;;;;3.25;3.25;;;;;11.64;55.88;103379.94;2072438;28;46689;-62
2023/02/05 03:27:27;;;;;;;;;2.75;2.75;;;;;11.65;55.65;103371.09;2062818;28;46393;-61
2023/02/05 03:28:27;;;;;;;;;4.00;4.00;;;;;11.63;55.88;103371.09;2063057;27;46474;-60
2023/02/05 03:29:34;;;;;;;;;3.00;3.00;;;;;11.63;55.34;103375.50;2062627;28;46293;-60
2023/02/05 03:30:51;;;;;;;;;2.50;2.25;;;;;11.62;55.76;103381.69;2062933;28;45851;-61
2023/02/05 03:31:57;;;;;;;;;3.00;1.75;;;;;11.61;55.93;103386.13;2070015;27;46465;-61
2023/02/05 03:33:29;;;;;;;;;3.75;2.50;;;;;11.63;55.59;103391.47;2070576;28;46317;-60
2023/02/05 03:34:41;;;;;;;;;4.75;4.00;;;;;11.62;55.79;103387.03;2068841;28;46493;-61
2023/02/05 03:35:55;;;;;;;;;3.25;3.25;;;;;11.60;55.79;103387.00;2069268;28;46403;-61
2023/02/05 03:37:16;;;;;;;;;3.25;3.25;;;;;11.61;56.04;103382.56;2064838;28;46664;-61
2023/02/05 03:38:50;;;;;;;;;3.00;3.00;;;;;11.61;55.85;103377.25;2061837;28;46548;-62
2023/02/05 03:40:28;;;;;;;;;3.25;3.25;;;;;11.57;55.98;103378.97;2070828;28;46690;-61
2023/02/05 03:41:55;;;;;;;;;2.50;2.50;;;;;11.56;56.38;103387.81;2062388;28;46744;-60
2023/02/05 03:43:11;;;;;;;;;3.50;3.50;;;;;11.55;56.33;103382.44;2069346;28;46705;-61
2023/02/05 03:44:26;;;;;;;;;4.00;4.00;;;;;11.55;56.42;103387.78;2066742;28;47283;-61
2023/02/05 03:45:41;;;;;;;;;5.00;4.00;;;;;11.56;56.35;103377.19;2062985;28;46839;-62
2023/02/05 03:46:52;;;;;;;;;1.75;1.75;;;;;11.55;56.37;103375.38;2070681;27;46421;-62
2023/02/05 03:48:15;;;;;;;;;4.00;3.00;;;;;11.57;56.37;103378.09;2070259;28;46974;-61
2023/02/05 03:49:27;;;;;;;;;2.75;1.75;;;;;11.58;56.38;103378.09;2070914;28;46008;-60
2023/02/05 03:50:39;;;;;;;;;1.00;1.00;;;;;11.58;56.54;103372.78;2069291;28;46681;-62
2023/02/05 03:52:17;;;;;;;;;4.00;4.00;;;;;11.57;56.51;103378.09;2062426;28;46827;-63
2023/02/05 03:53:27;;;;;;;;;1.75;1.75;;;;;11.55;56.54;103382.44;2062447;28;46995;-62
2023/02/05 03:54:31;;;;;;;;;3.25;3.25;;;;;11.54;56.43;103375.34;2069323;28;46363;-61
2023/02/05 03:55:40;;;;;;;;;2.75;2.75;;;;;11.55;56.81;103374.47;2068924;27;46722;-61
2023/02/05 03:57:01;;;;;;;;;3.00;3.00;;;;;11.55;56.67;103372.72;2063590;27;46313;-61
2023/02/05 03:58:13;;;;;;;;;4.00;3.75;;;;;11.54;56.60;103368.25;2062154;28;46325;-63
2023/02/05 03:59:15;;;;;;;;;3.00;3.00;;;;;11.52;56.56;103370.00;2068182;28;46277;-62
2023/02/05 04:00:16;;;;;;;;;3.00;3.00;;;;;11.51;56.58;103368.22;2070919;27;46080;-61
2023/02/05 04:01:17;;;;;;;;;4.75;3.25;;;;;11.50;56.64;103369.97;2070511;28;46428;-60
2023/02/05 04:02:19;;;;;;;;;3.50;3.50;;;;;11.50;56.79;103377.06;2062269;28;45788;-60
2023/02/05 04:03:20;;;;;;;;;3.00;3.00;;;;;11.50;56.74;103375.31;2062238;28;46779;-60
2023/02/05 04:04:20;;;;;;;;;3.00;3.00;;;;;11.50;56.74;103379.72;2070671;28;46019;-61
2023/02/05 04:05:21;;;;;;;;;2.00;2.00;;;;;11.50;56.93;103377.06;2061971;28;46637;-61
2023/02/05 04:06:22;;;;;;;;;2.50;2.50;;;;;11.49;56.73;103376.19;2061990;28;46328;-62
2023/02/05 04:07:22;;;;;;;;;4.00;3.00;;;;;11.48;56.89;103374.38;2064363;28;46303;-62
2023/02/05 04:08:22;;;;;;;;;4.33;4.33;;;;;11.48;56.84;103368.16;2054574;28;47190;-61
2023/02/05 04:09:23;;;;;;;;;2.00;2.00;;;;;11.48;57.19;103370.84;2067254;27;46516;-60
2023/02/05 04:10:23;;;;;;;;;2.00;2.00;;;;;11.49;57.07;103376.19;2065468;28;46278;-63
2023/02/05 04:11:23;;;;;;;;;3.00;3.00;;;;;11.49;57.21;103368.19;2060599;28;46184;-61
2023/02/05 04:12:24;;;;;;;;;3.33;3.33;;;;;11.49;57.10;103376.19;2070019;27;46251;-61
2023/02/05 04:13:24;;;;;;;;;2.00;2.00;;;;;11.50;57.00;103369.09;2070666;27;46314;-62
2023/02/05 04:14:24;;;;;;;;;4.00;4.00;;;;;11.52;57.12;103371.78;2070452;28;46688;-61
2023/02/05 04:15:25;;;;;;;;;4.67;4.67;;;;;11.52;57.20;103371.78;2070311;28;46603;-62
2023/02/05 04:16:25;;;;;;;;;3.00;3.00;;;;;11.52;57.08;103377.09;2069815;27;46289;-60
2023/02/05 04:17:26;;;;;;;;;3.33;3.33;;;;;11.50;57.08;103372.66;2069691;28;46675;-60
2023/02/05 04:18:26;;;;;;;;;5.00;4.00;;;;;11.50;57.37;103375.31;2070900;28;46720;-58
2023/02/05 04:19:26;;;;;;;;;4.33;3.00;;;;;11.48;57.19;103379.72;2070167;28;46617;-60
2023/02/05 04:20:27;;;;;;;;;5.33;4.00;;;;;11.49;57.20;103385.91;2067356;28;46415;-61
2023/02/05 04:21:27;;;;;;;;;3.33;3.33;;;;;11.49;57.48;103381.50;2070514;28;46199;-60
2023/02/05 04:22:27;;;;;;;;;3.67;3.67;;;;;11.48;57.36;103387.69;2070145;28;46529;-62
2023/02/05 04:23:28;;;;;;;;;4.00;3.00;;;;;11.49;57.31;103383.25;2070755;27;45569;-61
2023/02/05 04:24:28;;;;;;;;;4.00;3.67;;;;;11.49;57.38;103373.50;2070868;28;45873;-62
2023/02/05 04:25:28;;;;;;;;;6.00;4.67;;;;;11.50;57.30;103379.72;2074148;28;46686;-62
2023/02/05 04:26:29;;;;;;;;;4.33;3.00;;;;;11.48;57.28;103382.38;2074280;27;46839;-60
2023/02/05 04:27:29;;;;;;;;;3.33;3.33;;;;;11.48;57.66;103386.78;2070697;28;45916;-61
2023/02/05 04:28:29;;;;;;;;;3.00;3.00;;;;;11.47;57.57;103383.22;2067633;27;46578;-63
2023/02/05 04:29:29;;;;;;;;;3.67;3.00;;;;;11.47;57.69;103385.91;2063443;28;47003;-62
2023/02/05 04:30:33;;;;;;;;;4.00;4.00;;;;;11.48;57.61;103384.13;2069846;28;45297;-62
2023/02/05 04:31:34;;;;;;;;;2.50;2.00;;;;;11.48;57.67;103392.09;2070446;28;45743;-61
2023/02/05 04:32:34;;;;;;;;;5.00;5.00;;;;;11.48;57.85;103402.75;2070335;28;46337;-62
2023/02/05 04:33:34;;;;;;;;;3.67;3.00;;;;;11.49;57.91;103399.22;2069999;27;46511;-63
2023/02/05 04:34:34;;;;;;;;;4.00;4.00;;;;;11.49;57.68;103393.91;2067911;28;45928;-62
2023/02/05 04:35:35;;;;;;;;;4.33;4.33;;;;;11.50;57.87;103395.69;2063939;28;45919;-61
2023/02/05 04:36:35;;;;;;;;;4.33;4.00;;;;;11.50;57.97;103399.22;2069674;27;45668;-61
2023/02/05 04:37:36;;;;;;;;;5.33;5.33;;;;;11.52;57.65;103403.69;2070447;27;46020;-60
2023/02/05 04:38:36;;;;;;;;;4.00;3.00;;;;;11.53;57.73;103402.81;2070721;28;45600;-61
2023/02/05 04:39:36;;;;;;;;;5.33;5.33;;;;;11.53;57.77;103402.81;2070011;28;46756;-61
2023/02/05 04:40:37;;;;;;;;;7.67;5.33;;;;;11.54;57.75;103400.16;2070599;28;46585;-61
2023/02/05 04:41:37;;;;;;;;;4.67;4.00;;;;;11.54;57.84;103401.94;2065276;28;46853;-61
2023/02/05 04:42:37;;;;;;;;;7.00;7.00;;;;;11.54;57.73;103400.16;2067107;28;46288;-62
2023/02/05 04:43:38;;;;;;;;;5.33;5.33;;;;;11.54;57.73;103402.84;2070544;28;46544;-60
2023/02/05 04:44:38;;;;;;;;;4.67;3.00;;;;;11.54;57.68;103397.50;2069495;28;47610;-62
2023/02/05 04:45:38;;;;;;;;;4.00;4.00;;;;;11.54;57.78;103402.84;2069874;28;46760;-62
2023/02/05 04:46:39;;;;;;;;;6.33;6.33;;;;;11.55;57.79;103401.06;2070581;28;46668;-61
2023/02/05 04:47:39;;;;;;;;;6.00;6.00;;;;;11.55;57.92;103399.31;2070220;28;46619;-62
2023/02/05 04:48:39;;;;;;;;;3.33;3.33;;;;;11.56;57.94;103397.53;2070480;28;46188;-61
2023/02/05 04:49:40;;;;;;;;;7.00;5.67;;;;;11.57;58.03;103407.34;2061724;28;46333;-62
2023/02/05 04:50:40;;;;;;;;;5.00;5.00;;;;;11.56;57.82;103406.44;2061503;28;46666;-59
2023/02/05 04:51:40;;;;;;;;;4.67;4.67;;;;;11.56;57.85;103400.19;2069046;28;46661;-61
2023/02/05 04:52:41;;;;;;;;;6.67;5.33;;;;;11.56;57.84;103405.50;2053337;28;46260;-63
2023/02/05 04:53:41;;;;;;;;;4.67;4.67;;;;;11.54;57.75;103397.50;2053916;28;46226;-62
2023/02/05 04:54:41;;;;;;;;;4.67;4.67;;;;;11.54;57.65;103404.59;2063054;28;46501;-63
2023/02/05 04:55:42;;;;;;;;;7.00;7.00;;;;;11.53;57.79;103402.81;2075595;28;45954;-63
2023/02/05 04:56:42;;;;;;;;;5.67;4.67;;;;;11.50;58.01;103399.22;2067798;27;46047;-62